sensor_id;sensor_type;location;lat;lon;timestamp;pressure;altitude;pressure_sealevel;temperature;humidity
32735;BME280;19112;51.076;3.706;2023-08-12T00:00:09;101332.50;;;23.21;70.35
32735;BME280;19112;51.076;3.706;2023-08-12T00:03:13;101124.25;;;21.77;70.75
32735;BME280;19112;51.076;3.706;2023-08-12T00:07:19;101203.09;;;22.32;70.73
32735;BME280;19112;51.076;3.706;2023-08-12T00:11:06;101603.50;;;24.71;70.71
32735;BME280;19112;51.076;3.706;2023-08-12T00:14:20;101287.50;;;22.71;70.78
32735;BME280;19112;51.076;3.706;2023-08-12T00:17:22;101612.59;;;24.59;71.42
32735;BME280;19112;51.076;3.706;2023-08-12T00:20:45;101366.56;;;23.13;71.18
32735;BME280;19112;51.076;3.706;2023-08-12T00:23:55;101180.16;;;22.03;71.21
32735;BME280;19112;51.076;3.706;2023-08-12T00:27:11;101050.66;;;21.35;70.75
32735;BME280;19112;51.076;3.706;2023-08-12T00:30:34;101193.34;;;22.26;70.83
32735;BME280;19112;51.076;3.706;2023-08-12T00:33:36;101291.97;;;22.69;71.14
32735;BME280;19112;51.076;3.706;2023-08-12T00:36:18;101258.91;;;22.73;71.06
32735;BME280;19112;51.076;3.706;2023-08-12T00:39:13;101244.72;;;22.65;71.05
32735;BME280;19112;51.076;3.706;2023-08-12T00:42:33;101207.44;;;22.46;71.10
32735;BME280;19112;51.076;3.706;2023-08-12T00:45:57;101188.91;;;22.28;71.37
32735;BME280;19112;51.076;3.706;2023-08-12T00:49:34;101244.75;;;22.62;71.76
32735;BME280;19112;51.076;3.706;2023-08-12T00:52:55;101264.47;;;22.55;72.94
32735;BME280;19112;51.076;3.706;2023-08-12T00:56:35;100987.81;;;20.88;73.18
32735;BME280;19112;51.076;3.706;2023-08-12T01:00:14;100895.66;;;20.27;74.18
32735;BME280;19112;51.076;3.706;2023-08-12T01:03:34;101089.88;;;21.33;74.76
32735;BME280;19112;51.076;3.706;2023-08-12T01:06:37;101584.47;;;24.12;75.53
32735;BME280;19112;51.076;3.706;2023-08-12T01:09:49;101236.25;;;22.17;75.46
32735;BME280;19112;51.076;3.706;2023-08-12T01:13:23;101225.63;;;22.11;75.79
32735;BME280;19112;51.076;3.706;2023-08-12T01:16:05;101230.06;;;22.10;75.93
32735;BME280;19112;51.076;3.706;2023-08-12T01:19:06;101105.75;;;21.50;75.80
32735;BME280;19112;51.076;3.706;2023-08-12T01:22:09;101111.09;;;21.50;76.13
32735;BME280;19112;51.076;3.706;2023-08-12T01:25:29;101538.06;;;24.05;76.26
32735;BME280;19112;51.076;3.706;2023-08-12T01:28:22;101206.13;;;21.90;76.47
32735;BME280;19112;51.076;3.706;2023-08-12T01:31:43;101533.44;;;24.18;76.08
32735;BME280;19112;51.076;3.706;2023-08-12T01:37:21;101183.84;;;21.91;76.48
32735;BME280;19112;51.076;3.706;2023-08-12T01:40:21;101550.56;;;24.07;76.65
32735;BME280;19112;51.076;3.706;2023-08-12T01:43:30;101198.81;;;22.17;76.40
32735;BME280;19112;51.076;3.706;2023-08-12T01:46:09;101159.69;;;22.02;76.54
32735;BME280;19112;51.076;3.706;2023-08-12T01:49:34;101071.16;;;21.28;76.25
32735;BME280;19112;51.076;3.706;2023-08-12T01:52:36;101530.09;;;23.99;77.20
32735;BME280;19112;51.076;3.706;2023-08-12T01:55:42;100939.13;;;20.49;76.91
32735;BME280;19112;51.076;3.706;2023-08-12T01:58:53;101523.00;;;23.94;77.28
32735;BME280;19112;51.076;3.706;2023-08-12T02:01:58;101161.63;;;21.85;77.75
32735;BME280;19112;51.076;3.706;2023-08-12T02:09:20;101043.56;;;21.28;78.53
32735;BME280;19112;51.076;3.706;2023-08-12T02:12:08;101128.84;;;21.60;78.71
32735;BME280;19112;51.076;3.706;2023-08-12T02:15:29;101184.72;;;21.95;78.96
32735;BME280;19112;51.076;3.706;2023-08-12T02:18:18;101029.59;;;20.87;80.03
32735;BME280;19112;51.076;3.706;2023-08-12T02:20:56;101261.16;;;22.20;80.27
32735;BME280;19112;51.076;3.706;2023-08-12T02:23:45;101191.06;;;21.80;81.61
32735;BME280;19112;51.076;3.706;2023-08-12T02:26:15;101135.28;;;21.31;81.84
32735;BME280;19112;51.076;3.706;2023-08-12T02:28:43;101101.50;;;21.16;82.33
32735;BME280;19112;51.076;3.706;2023-08-12T02:31:17;101488.59;;;23.46;82.83
32735;BME280;19112;51.076;3.706;2023-08-12T02:33:53;101007.50;;;20.64;82.85
32735;BME280;19112;51.076;3.706;2023-08-12T02:39:32;101443.00;;;23.49;83.91
32735;BME280;19112;51.076;3.706;2023-08-12T02:42:11;101432.28;;;23.49;83.92
32735;BME280;19112;51.076;3.706;2023-08-12T02:44:45;101005.72;;;20.69;84.36
32735;BME280;19112;51.076;3.706;2023-08-12T02:47:27;101004.63;;;20.98;85.71
32735;BME280;19112;51.076;3.706;2023-08-12T02:50:45;100920.53;;;20.28;86.66
32735;BME280;19112;51.076;3.706;2023-08-12T02:53:39;100962.25;;;20.49;87.18
32735;BME280;19112;51.076;3.706;2023-08-12T02:56:24;101167.09;;;21.68;87.66
32735;BME280;19112;51.076;3.706;2023-08-12T02:59:08;100962.19;;;20.58;88.27
32735;BME280;19112;51.076;3.706;2023-08-12T03:01:36;101438.63;;;23.39;88.74
32735;BME280;19112;51.076;3.706;2023-08-12T03:04:03;101118.25;;;21.49;88.33
32735;BME280;19112;51.076;3.706;2023-08-12T03:06:35;101135.94;;;21.65;88.29
32735;BME280;19112;51.076;3.706;2023-08-12T03:09:04;101433.13;;;23.51;88.28
32735;BME280;19112;51.076;3.706;2023-08-12T03:11:33;101046.25;;;21.31;88.02
32735;BME280;19112;51.076;3.706;2023-08-12T03:14:05;101072.84;;;21.44;88.10
32735;BME280;19112;51.076;3.706;2023-08-12T03:16:31;101213.84;;;22.29;88.80
32735;BME280;19112;51.076;3.706;2023-08-12T03:18:57;101092.38;;;21.54;88.78
32735;BME280;19112;51.076;3.706;2023-08-12T03:21:23;101113.59;;;21.71;89.21
32735;BME280;19112;51.076;3.706;2023-08-12T03:23:53;101078.13;;;21.54;89.08
32735;BME280;19112;51.076;3.706;2023-08-12T03:26:20;101012.44;;;21.27;88.43
32735;BME280;19112;51.076;3.706;2023-08-12T03:28:49;101009.75;;;21.31;88.48
32735;BME280;19112;51.076;3.706;2023-08-12T03:31:15;101306.97;;;22.90;88.30
32735;BME280;19112;51.076;3.706;2023-08-12T03:33:44;101108.19;;;21.77;88.80
32735;BME280;19112;51.076;3.706;2023-08-12T03:36:17;101027.47;;;21.43;88.58
32735;BME280;19112;51.076;3.706;2023-08-12T03:38:44;100966.22;;;21.14;89.11
32735;BME280;19112;51.076;3.706;2023-08-12T03:41:12;101096.63;;;21.80;88.74
32735;BME280;19112;51.076;3.706;2023-08-12T03:43:44;101070.84;;;21.74;88.92
32735;BME280;19112;51.076;3.706;2023-08-12T03:46:11;100999.06;;;21.27;88.59
32735;BME280;19112;51.076;3.706;2023-08-12T03:48:43;100860.91;;;20.46;89.04
32735;BME280;19112;51.076;3.706;2023-08-12T03:51:09;100946.78;;;20.97;88.41
32735;BME280;19112;51.076;3.706;2023-08-12T03:53:35;101077.16;;;21.62;88.96
32735;BME280;19112;51.076;3.706;2023-08-12T03:56:02;101069.09;;;21.67;89.01
32735;BME280;19112;51.076;3.706;2023-08-12T03:58:29;101093.06;;;21.79;89.63
32735;BME280;19112;51.076;3.706;2023-08-12T04:00:58;101034.53;;;21.45;89.30
32735;BME280;19112;51.076;3.706;2023-08-12T04:03:25;100980.47;;;21.16;89.07
32735;BME280;19112;51.076;3.706;2023-08-12T04:05:55;101083.28;;;21.75;90.23
32735;BME280;19112;51.076;3.706;2023-08-12T04:08:25;101288.31;;;22.81;90.56
32735;BME280;19112;51.076;3.706;2023-08-12T04:11:07;101041.69;;;21.45;90.91
32735;BME280;19112;51.076;3.706;2023-08-12T04:13:37;101106.63;;;21.55;91.34
32735;BME280;19112;51.076;3.706;2023-08-12T04:16:07;100974.44;;;20.86;91.22
32735;BME280;19112;51.076;3.706;2023-08-12T04:18:34;101103.97;;;21.50;91.16
32735;BME280;19112;51.076;3.706;2023-08-12T04:21:00;101034.81;;;21.10;91.82
32735;BME280;19112;51.076;3.706;2023-08-12T04:23:29;101041.94;;;21.10;92.22
32735;BME280;19112;51.076;3.706;2023-08-12T04:25:54;100990.50;;;20.80;92.55
32735;BME280;19112;51.076;3.706;2023-08-12T04:28:22;101085.34;;;21.39;92.74
32735;BME280;19112;51.076;3.706;2023-08-12T04:30:50;101088.06;;;21.35;93.26
32735;BME280;19112;51.076;3.706;2023-08-12T04:33:17;101391.69;;;23.02;93.29
32735;BME280;19112;51.076;3.706;2023-08-12T04:35:46;100970.09;;;20.72;93.23
32735;BME280;19112;51.076;3.706;2023-08-12T04:38:15;101002.09;;;20.78;93.43
32735;BME280;19112;51.076;3.706;2023-08-12T04:40:47;100956.81;;;20.65;93.57
32735;BME280;19112;51.076;3.706;2023-08-12T04:43:16;101085.41;;;21.27;93.94
32735;BME280;19112;51.076;3.706;2023-08-12T04:45:47;101063.22;;;21.21;93.40
32735;BME280;19112;51.076;3.706;2023-08-12T04:48:16;101363.16;;;22.96;93.93
32735;BME280;19112;51.076;3.706;2023-08-12T04:50:43;101086.31;;;21.25;93.35
32735;BME280;19112;51.076;3.706;2023-08-12T04:53:14;101011.81;;;20.89;93.46
32735;BME280;19112;51.076;3.706;2023-08-12T04:55:50;101013.56;;;20.93;93.76
32735;BME280;19112;51.076;3.706;2023-08-12T04:58:17;101123.50;;;21.63;93.82
32735;BME280;19112;51.076;3.706;2023-08-12T05:00:44;101061.44;;;21.21;93.62
32735;BME280;19112;51.076;3.706;2023-08-12T05:03:20;100865.56;;;20.08;93.20
32735;BME280;19112;51.076;3.706;2023-08-12T05:05:51;100980.75;;;20.76;93.41
32735;BME280;19112;51.076;3.706;2023-08-12T05:08:19;101371.16;;;22.99;93.72
32735;BME280;19112;51.076;3.706;2023-08-12T05:10:47;101096.06;;;21.38;93.31
32735;BME280;19112;51.076;3.706;2023-08-12T05:13:17;101060.50;;;21.24;93.66
32735;BME280;19112;51.076;3.706;2023-08-12T05:15:49;101011.81;;;20.89;93.88
32735;BME280;19112;51.076;3.706;2023-08-12T05:18:17;101406.78;;;23.06;94.14
32735;BME280;19112;51.076;3.706;2023-08-12T05:20:51;101106.72;;;21.39;93.93
32735;BME280;19112;51.076;3.706;2023-08-12T05:23:21;101050.84;;;21.03;94.15
32735;BME280;19112;51.076;3.706;2023-08-12T05:25:55;101100.56;;;21.33;93.68
32735;BME280;19112;51.076;3.706;2023-08-12T05:28:27;101059.78;;;21.00;93.58
32735;BME280;19112;51.076;3.706;2023-08-12T05:30:54;101311.00;;;22.35;93.25
32735;BME280;19112;51.076;3.706;2023-08-12T05:33:26;101397.16;;;22.83;93.11
32735;BME280;19112;51.076;3.706;2023-08-12T05:36:03;101047.50;;;20.70;92.86
32735;BME280;19112;51.076;3.706;2023-08-12T05:38:45;101181.53;;;21.38;93.30
32735;BME280;19112;51.076;3.706;2023-08-12T05:41:26;101247.28;;;21.66;93.43
32735;BME280;19112;51.076;3.706;2023-08-12T05:43:56;101066.31;;;20.35;93.44
32735;BME280;19112;51.076;3.706;2023-08-12T05:46:30;101150.66;;;20.74;93.54
32735;BME280;19112;51.076;3.706;2023-08-12T05:49:07;101116.06;;;20.37;92.41
32735;BME280;19112;51.076;3.706;2023-08-12T05:51:34;101445.81;;;21.99;93.35
32735;BME280;19112;51.076;3.706;2023-08-12T05:54:04;100986.53;;;19.32;92.80
32735;BME280;19112;51.076;3.706;2023-08-12T05:56:30;100981.22;;;19.29;93.06
32735;BME280;19112;51.076;3.706;2023-08-12T05:59:02;101115.28;;;19.93;93.83
32735;BME280;19112;51.076;3.706;2023-08-12T06:01:28;101011.38;;;19.13;94.14
32735;BME280;19112;51.076;3.706;2023-08-12T06:03:57;101151.69;;;19.94;94.35
32735;BME280;19112;51.076;3.706;2023-08-12T06:06:24;101153.47;;;19.99;94.65
32735;BME280;19112;51.076;3.706;2023-08-12T06:08:52;101112.63;;;19.93;95.54
32735;BME280;19112;51.076;3.706;2023-08-12T06:11:19;101099.31;;;19.67;95.02
32735;BME280;19112;51.076;3.706;2023-08-12T06:13:46;101039.75;;;19.32;95.01
32735;BME280;19112;51.076;3.706;2023-08-12T06:16:14;101453.97;;;21.67;95.66
32735;BME280;19112;51.076;3.706;2023-08-12T06:18:40;101105.47;;;19.58;95.11
32735;BME280;19112;51.076;3.706;2023-08-12T06:21:06;101157.00;;;19.71;94.27
32735;BME280;19112;51.076;3.706;2023-08-12T06:23:34;101435.28;;;21.56;95.02
32735;BME280;19112;51.076;3.706;2023-08-12T06:26:00;101365.03;;;21.01;95.09
32735;BME280;19112;51.076;3.706;2023-08-12T06:28:27;101107.25;;;19.56;94.56
32735;BME280;19112;51.076;3.706;2023-08-12T06:30:54;101129.50;;;19.66;94.27
32735;BME280;19112;51.076;3.706;2023-08-12T06:33:20;101083.28;;;19.41;94.07
32735;BME280;19112;51.076;3.706;2023-08-12T06:35:46;101351.66;;;21.02;93.35
32735;BME280;19112;51.076;3.706;2023-08-12T06:38:12;101248.56;;;20.48;93.53
32735;BME280;19112;51.076;3.706;2023-08-12T06:40:40;101080.59;;;19.47;92.71
32735;BME280;19112;51.076;3.706;2023-08-12T06:43:08;101127.72;;;19.74;93.57
32735;BME280;19112;51.076;3.706;2023-08-12T06:45:36;101141.03;;;19.87;94.24
32735;BME280;19112;51.076;3.706;2023-08-12T06:48:02;101038.00;;;19.50;94.68
32735;BME280;19112;51.076;3.706;2023-08-12T06:50:30;101125.91;;;20.05;95.97
32735;BME280;19112;51.076;3.706;2023-08-12T06:52:59;101110.78;;;20.02;95.97
32735;BME280;19112;51.076;3.706;2023-08-12T06:55:27;101408.44;;;21.87;96.36
32735;BME280;19112;51.076;3.706;2023-08-12T06:57:52;101051.25;;;20.06;95.75
32735;BME280;19112;51.076;3.706;2023-08-12T07:00:19;101156.06;;;20.62;95.27
32735;BME280;19112;51.076;3.706;2023-08-12T07:02:47;101193.25;;;21.02;95.25
32735;BME280;19112;51.076;3.706;2023-08-12T07:05:13;101157.75;;;20.81;95.57
32735;BME280;19112;51.076;3.706;2023-08-12T07:07:40;101475.66;;;22.93;95.07
32735;BME280;19112;51.076;3.706;2023-08-12T07:10:13;101062.69;;;20.56;93.43
32735;BME280;19112;51.076;3.706;2023-08-12T07:12:39;101104.38;;;20.84;91.62
32735;BME280;19112;51.076;3.706;2023-08-12T07:15:08;101202.06;;;21.27;90.97
32735;BME280;19112;51.076;3.706;2023-08-12T07:17:37;101081.38;;;20.53;89.45
32735;BME280;19112;51.076;3.706;2023-08-12T07:20:06;101141.75;;;20.77;90.59
32735;BME280;19112;51.076;3.706;2023-08-12T07:22:34;100995.34;;;19.94;91.05
32735;BME280;19112;51.076;3.706;2023-08-12T07:25:00;101176.31;;;21.10;90.69
32735;BME280;19112;51.076;3.706;2023-08-12T07:27:32;101156.69;;;21.21;90.70
32735;BME280;19112;51.076;3.706;2023-08-12T07:29:58;101098.84;;;21.16;90.66
32735;BME280;19112;51.076;3.706;2023-08-12T07:32:24;100940.06;;;20.37;89.98
32735;BME280;19112;51.076;3.706;2023-08-12T07:34:51;101184.81;;;21.81;88.31
32735;BME280;19112;51.076;3.706;2023-08-12T07:37:17;101034.69;;;21.26;87.40
32735;BME280;19112;51.076;3.706;2023-08-12T07:39:47;101469.28;;;23.97;87.84
32735;BME280;19112;51.076;3.706;2023-08-12T07:42:14;101180.72;;;22.42;86.35
32735;BME280;19112;51.076;3.706;2023-08-12T07:44:46;101201.97;;;22.57;85.24
32735;BME280;19112;51.076;3.706;2023-08-12T07:47:15;101200.13;;;22.64;85.05
32735;BME280;19112;51.076;3.706;2023-08-12T07:49:43;101126.41;;;22.34;83.70
32735;BME280;19112;51.076;3.706;2023-08-12T07:52:11;101206.91;;;22.97;84.50
32735;BME280;19112;51.076;3.706;2023-08-12T07:54:37;101216.44;;;23.19;81.93
32735;BME280;19112;51.076;3.706;2023-08-12T07:57:03;101104.38;;;22.84;80.83
32735;BME280;19112;51.076;3.706;2023-08-12T07:59:29;101083.22;;;22.66;79.17
32735;BME280;19112;51.076;3.706;2023-08-12T08:01:56;101130.91;;;23.07;80.06
32735;BME280;19112;51.076;3.706;2023-08-12T08:04:23;101354.06;;;24.51;78.92
32735;BME280;19112;51.076;3.706;2023-08-12T08:06:55;101148.44;;;23.30;77.78
32735;BME280;19112;51.076;3.706;2023-08-12T08:09:22;101481.56;;;25.38;76.86
32735;BME280;19112;51.076;3.706;2023-08-12T08:11:55;101117.25;;;23.24;78.34
32735;BME280;19112;51.076;3.706;2023-08-12T08:14:23;101209.44;;;23.74;77.04
32735;BME280;19112;51.076;3.706;2023-08-12T08:16:51;101069.13;;;23.16;76.50
32735;BME280;19112;51.076;3.706;2023-08-12T08:19:25;101181.84;;;23.67;77.30
32735;BME280;19112;51.076;3.706;2023-08-12T08:21:53;101139.44;;;23.34;77.41
32735;BME280;19112;51.076;3.706;2023-08-12T08:24:20;101113.81;;;23.14;77.10
32735;BME280;19112;51.076;3.706;2023-08-12T08:26:48;101314.94;;;24.36;73.61
32735;BME280;19112;51.076;3.706;2023-08-12T08:29:14;101140.34;;;23.33;74.07
32735;BME280;19112;51.076;3.706;2023-08-12T08:31:41;101141.41;;;23.22;74.98
32735;BME280;19112;51.076;3.706;2023-08-12T08:34:09;101198.25;;;23.44;76.01
32735;BME280;19112;51.076;3.706;2023-08-12T08:36:43;101234.75;;;23.53;76.08
32735;BME280;19112;51.076;3.706;2023-08-12T08:39:11;101211.75;;;23.37;74.77
32735;BME280;19112;51.076;3.706;2023-08-12T08:41:48;101170.59;;;23.41;75.09
32735;BME280;19112;51.076;3.706;2023-08-12T08:44:17;101175.66;;;23.64;75.54
32735;BME280;19112;51.076;3.706;2023-08-12T08:46:52;101137.81;;;23.82;73.38
32735;BME280;19112;51.076;3.706;2023-08-12T08:49:20;101412.31;;;25.49;69.36
32735;BME280;19112;51.076;3.706;2023-08-12T08:51:49;101539.16;;;26.22;70.59
32735;BME280;19112;51.076;3.706;2023-08-12T08:54:16;101528.47;;;26.18;71.06
32735;BME280;19112;51.076;3.706;2023-08-12T08:56:43;101548.47;;;26.06;71.85
32735;BME280;19112;51.076;3.706;2023-08-12T08:59:10;101134.38;;;23.74;67.61
32735;BME280;19112;51.076;3.706;2023-08-12T09:01:40;101529.88;;;25.92;70.21
32735;BME280;19112;51.076;3.706;2023-08-12T09:04:08;101544.56;;;25.76;69.63
32735;BME280;19112;51.076;3.706;2023-08-12T09:06:37;101269.28;;;24.36;71.91
32735;BME280;19112;51.076;3.706;2023-08-12T09:09:10;101068.94;;;23.30;72.47
32735;BME280;19112;51.076;3.706;2023-08-12T09:11:46;101114.25;;;23.45;69.57
32735;BME280;19112;51.076;3.706;2023-08-12T09:14:14;101334.06;;;24.69;69.88
32735;BME280;19112;51.076;3.706;2023-08-12T09:16:47;101200.97;;;24.01;71.28
32735;BME280;19112;51.076;3.706;2023-08-12T09:19:19;101169.13;;;23.80;71.16
32735;BME280;19112;51.076;3.706;2023-08-12T09:21:53;101145.09;;;23.74;68.35
32735;BME280;19112;51.076;3.706;2023-08-12T09:24:29;101282.72;;;24.36;66.25
32735;BME280;19112;51.076;3.706;2023-08-12T09:27:04;101280.78;;;24.44;68.02
32735;BME280;19112;51.076;3.706;2023-08-12T09:29:37;101229.28;;;24.19;69.44
32735;BME280;19112;51.076;3.706;2023-08-12T09:32:14;101543.88;;;26.09;69.32
32735;BME280;19112;51.076;3.706;2023-08-12T09:34:53;101154.09;;;23.70;69.24
32735;BME280;19112;51.076;3.706;2023-08-12T09:37:36;101436.69;;;25.40;69.48
32735;BME280;19112;51.076;3.706;2023-08-12T09:40:08;101278.09;;;24.44;66.67
32735;BME280;19112;51.076;3.706;2023-08-12T09:42:45;101376.44;;;25.02;69.82
32735;BME280;19112;51.076;3.706;2023-08-12T09:45:17;101282.53;;;24.47;70.53
32735;BME280;19112;51.076;3.706;2023-08-12T09:47:57;101545.53;;;26.18;69.45
32735;BME280;19112;51.076;3.706;2023-08-12T09:50:40;101555.78;;;25.98;71.89
32735;BME280;19112;51.076;3.706;2023-08-12T09:53:14;101288.16;;;24.28;69.16
32735;BME280;19112;51.076;3.706;2023-08-12T09:55:42;101307.78;;;24.35;69.58
32735;BME280;19112;51.076;3.706;2023-08-12T09:58:23;101253.78;;;23.98;71.21
32735;BME280;19112;51.076;3.706;2023-08-12T10:00:54;101309.28;;;23.94;70.87
32735;BME280;19112;51.076;3.706;2023-08-12T10:03:31;101544.06;;;25.52;71.23
32735;BME280;19112;51.076;3.706;2023-08-12T10:06:02;101263.03;;;23.77;71.60
32735;BME280;19112;51.076;3.706;2023-08-12T10:08:34;101159.38;;;23.14;73.15
32735;BME280;19112;51.076;3.706;2023-08-12T10:11:22;101165.44;;;23.27;69.83
32735;BME280;19112;51.076;3.706;2023-08-12T10:13:53;101256.03;;;23.67;67.35
32735;BME280;19112;51.076;3.706;2023-08-12T10:16:33;101532.13;;;25.16;70.03
32735;BME280;19112;51.076;3.706;2023-08-12T10:19:15;101099.81;;;22.18;71.87
32735;BME280;19112;51.076;3.706;2023-08-12T10:21:53;101243.16;;;23.25;73.97
32735;BME280;19112;51.076;3.706;2023-08-12T10:24:42;101189.91;;;22.99;74.07
32735;BME280;19112;51.076;3.706;2023-08-12T10:27:28;101530.53;;;25.01;72.89
32735;BME280;19112;51.076;3.706;2023-08-12T10:30:08;101535.84;;;25.06;73.57
32735;BME280;19112;51.076;3.706;2023-08-12T10:32:44;101032.94;;;22.20;73.64
32735;BME280;19112;51.076;3.706;2023-08-12T10:35:29;101451.41;;;24.64;71.34
32735;BME280;19112;51.076;3.706;2023-08-12T10:38:56;101527.66;;;25.14;70.70
32735;BME280;19112;51.076;3.706;2023-08-12T10:41:57;101201.47;;;23.05;72.95
32735;BME280;19112;51.076;3.706;2023-08-12T10:45:04;101514.53;;;24.94;73.41
32735;BME280;19112;51.076;3.706;2023-08-12T10:48:30;101102.91;;;22.60;72.49
32735;BME280;19112;51.076;3.706;2023-08-12T10:51:49;101524.13;;;25.12;72.78
32735;BME280;19112;51.076;3.706;2023-08-12T10:54:43;101029.16;;;22.36;70.99
32735;BME280;19112;51.076;3.706;2023-08-12T10:57:53;101512.34;;;25.20;73.15
32735;BME280;19112;51.076;3.706;2023-08-12T11:00:58;101239.19;;;23.56;73.85
32735;BME280;19112;51.076;3.706;2023-08-12T11:03:37;101181.59;;;23.21;71.90
32735;BME280;19112;51.076;3.706;2023-08-12T11:06:14;101227.69;;;23.49;72.56
32735;BME280;19112;51.076;3.706;2023-08-12T11:09:13;101015.78;;;22.36;68.69
32735;BME280;19112;51.076;3.706;2023-08-12T11:12:08;101150.44;;;23.14;64.93
32735;BME280;19112;51.076;3.706;2023-08-12T11:15:15;101409.41;;;24.60;70.12
32735;BME280;19112;51.076;3.706;2023-08-12T11:18:18;101424.34;;;24.76;70.65
32735;BME280;19112;51.076;3.706;2023-08-12T11:21:13;101241.16;;;24.04;69.74
32735;BME280;19112;51.076;3.706;2023-08-12T11:28:18;101513.53;;;26.03;69.30
32735;BME280;19112;51.076;3.706;2023-08-12T11:31:50;101507.75;;;26.23;67.66
32735;BME280;19112;51.076;3.706;2023-08-12T11:35:38;101236.47;;;24.70;63.93
32735;BME280;19112;51.076;3.706;2023-08-12T11:39:43;101144.09;;;24.30;65.36
32735;BME280;19112;51.076;3.706;2023-08-12T11:45:44;101505.75;;;27.11;66.04
32735;BME280;19112;51.076;3.706;2023-08-12T11:49:18;101134.00;;;24.90;61.42
32735;BME280;19112;51.076;3.706;2023-08-12T11:53:25;101239.00;;;25.64;57.58
32735;BME280;19112;51.076;3.706;2023-08-12T11:57:27;101220.72;;;25.80;62.01
32735;BME280;19112;51.076;3.706;2023-08-12T12:01:36;101253.13;;;26.12;61.01
32735;BME280;19112;51.076;3.706;2023-08-12T12:16:23;101117.50;;;25.84;61.10
32735;BME280;19112;51.076;3.706;2023-08-12T15:27:44;101230.69;;;27.44;39.66
32735;BME280;19112;51.076;3.706;2023-08-12T15:30:10;101253.25;;;27.71;39.96
32735;BME280;19112;51.076;3.706;2023-08-12T15:32:36;101428.59;;;28.89;39.33
32735;BME280;19112;51.076;3.706;2023-08-12T15:35:03;101367.16;;;28.68;37.80
32735;BME280;19112;51.076;3.706;2023-08-12T15:37:28;101357.50;;;28.33;39.28
32735;BME280;19112;51.076;3.706;2023-08-12T15:39:54;101300.41;;;27.87;38.86
32735;BME280;19112;51.076;3.706;2023-08-12T15:42:20;101439.50;;;29.14;39.32
32735;BME280;19112;51.076;3.706;2023-08-12T15:44:46;101517.66;;;30.00;36.33
32735;BME280;19112;51.076;3.706;2023-08-12T15:47:12;101378.38;;;29.34;36.87
32735;BME280;19112;51.076;3.706;2023-08-12T15:49:38;101434.34;;;29.83;36.47
32735;BME280;19112;51.076;3.706;2023-08-12T15:52:04;101331.66;;;29.29;36.16
32735;BME280;19112;51.076;3.706;2023-08-12T15:54:30;101394.91;;;29.51;37.41
32735;BME280;19112;51.076;3.706;2023-08-12T15:56:55;101332.94;;;29.18;37.39
32735;BME280;19112;51.076;3.706;2023-08-12T15:59:22;101365.84;;;29.56;36.61
32735;BME280;19112;51.076;3.706;2023-08-12T16:01:48;101360.00;;;29.67;35.96
32735;BME280;19112;51.076;3.706;2023-08-12T16:04:13;101433.06;;;30.17;36.96
32735;BME280;19112;51.076;3.706;2023-08-12T16:06:39;101389.19;;;29.84;37.02
32735;BME280;19112;51.076;3.706;2023-08-12T16:09:05;101453.44;;;30.27;36.79
32735;BME280;19112;51.076;3.706;2023-08-12T16:11:31;101471.06;;;30.15;35.88
32735;BME280;19112;51.076;3.706;2023-08-12T16:13:57;101462.13;;;29.88;36.05
32735;BME280;19112;51.076;3.706;2023-08-12T16:16:23;101543.38;;;30.37;35.88
32735;BME280;19112;51.076;3.706;2023-08-12T16:18:49;101449.97;;;29.75;36.48
32735;BME280;19112;51.076;3.706;2023-08-12T16:21:14;101321.19;;;29.19;34.50
32735;BME280;19112;51.076;3.706;2023-08-12T16:23:40;101269.34;;;28.57;34.98
32735;BME280;19112;51.076;3.706;2023-08-12T16:26:06;101545.88;;;29.93;36.69
32735;BME280;19112;51.076;3.706;2023-08-12T16:28:32;101339.31;;;28.64;36.01
32735;BME280;19112;51.076;3.706;2023-08-12T16:30:58;101361.38;;;28.79;36.90
32735;BME280;19112;51.076;3.706;2023-08-12T16:33:24;101372.03;;;29.10;34.26
32735;BME280;19112;51.076;3.706;2023-08-12T16:35:50;101554.06;;;29.91;35.73
32735;BME280;19112;51.076;3.706;2023-08-12T16:38:16;101456.41;;;29.72;35.74
32735;BME280;19112;51.076;3.706;2023-08-12T16:40:42;101466.81;;;29.83;36.13
32735;BME280;19112;51.076;3.706;2023-08-12T16:43:08;101359.16;;;29.41;35.64
32735;BME280;19112;51.076;3.706;2023-08-12T16:45:34;101308.28;;;29.03;34.45
32735;BME280;19112;51.076;3.706;2023-08-12T16:48:00;101293.47;;;29.13;35.51
32735;BME280;19112;51.076;3.706;2023-08-12T16:50:26;101399.41;;;29.75;35.93
32735;BME280;19112;51.076;3.706;2023-08-12T16:52:52;101453.13;;;30.11;33.85
32735;BME280;19112;51.076;3.706;2023-08-12T16:55:17;101414.13;;;29.92;34.01
32735;BME280;19112;51.076;3.706;2023-08-12T16:57:43;101336.22;;;29.52;35.07
32735;BME280;19112;51.076;3.706;2023-08-12T17:00:10;101501.91;;;30.58;35.67
32735;BME280;19112;51.076;3.706;2023-08-12T17:02:37;101479.59;;;30.03;35.98
32735;BME280;19112;51.076;3.706;2023-08-12T17:05:03;101332.81;;;28.70;35.30
32735;BME280;19112;51.076;3.706;2023-08-12T17:07:29;101389.38;;;28.76;36.00
32735;BME280;19112;51.076;3.706;2023-08-12T17:09:55;101440.31;;;28.62;38.48
32735;BME280;19112;51.076;3.706;2023-08-12T17:12:22;101390.22;;;28.22;38.07
32735;BME280;19112;51.076;3.706;2023-08-12T17:14:48;101265.03;;;27.05;38.70
32735;BME280;19112;51.076;3.706;2023-08-12T19:18:30;101224.72;;;22.07;49.44
32735;BME280;19112;51.076;3.706;2023-08-12T19:21:32;101298.50;;;22.39;48.96
32735;BME280;19112;51.076;3.706;2023-08-12T19:24:38;101229.16;;;22.08;49.80
32735;BME280;19112;51.076;3.706;2023-08-12T19:27:52;101585.47;;;24.05;50.88
32735;BME280;19112;51.076;3.706;2023-08-12T19:30:52;101235.66;;;21.75;50.75
32735;BME280;19112;51.076;3.706;2023-08-12T19:33:38;101174.41;;;21.40;51.51